Terminal Aerodrome Forecast
Issued by NWS

Home | Current Version | Previous Version | Text Only | Print | Product List | Glossary On
Versions: 1 2 3 4 5 6 7 8 9 10 11 12 13 14 15
000
FTAK31 PANC 011738
TAFAIL
TAF
PAIL 011738Z 0118/0218 01004KT P6SM VCSH SCT040 BKN070
     FM012100 14010KT P6SM -SHRA SCT030 BKN050
     FM020600 13008KT P6SM VCSH SCT040 BKN070
     FM020900 04005KT P6SM VCSH BKN035=

USA.gov is the U.S. government's official web portal to all federal, state and local government web resources and services.